sensor_id;sensor_type;location;lat;lon;timestamp;P1;durP1;ratioP1;P2;durP2;ratioP2
64667;SDS011;51077;42.716;23.344;2023-03-01T00:01:20;3.73;;;2.07;;
64667;SDS011;51077;42.716;23.344;2023-03-01T00:03:48;4.43;;;2.20;;
64667;SDS011;51077;42.716;23.344;2023-03-01T00:06:15;3.90;;;2.20;;
64667;SDS011;51077;42.716;23.344;2023-03-01T00:08:41;3.22;;;1.80;;
64667;SDS011;51077;42.716;23.344;2023-03-01T00:11:07;3.50;;;1.90;;
64667;SDS011;51077;42.716;23.344;2023-03-01T00:13:36;2.88;;;1.70;;
64667;SDS011;51077;42.716;23.344;2023-03-01T00:16:03;3.90;;;1.90;;
64667;SDS011;51077;42.716;23.344;2023-03-01T00:18:29;3.20;;;1.77;;
64667;SDS011;51077;42.716;23.344;2023-03-01T00:20:55;3.13;;;1.80;;
64667;SDS011;51077;42.716;23.344;2023-03-01T00:23:22;3.67;;;2.17;;
64667;SDS011;51077;42.716;23.344;2023-03-01T00:25:48;3.38;;;1.60;;
64667;SDS011;51077;42.716;23.344;2023-03-01T00:28:14;3.60;;;1.80;;
64667;SDS011;51077;42.716;23.344;2023-03-01T00:30:40;3.08;;;1.65;;
64667;SDS011;51077;42.716;23.344;2023-03-01T00:33:06;2.67;;;1.27;;
64667;SDS011;51077;42.716;23.344;2023-03-01T00:35:32;3.47;;;1.97;;
64667;SDS011;51077;42.716;23.344;2023-03-01T00:37:58;2.25;;;1.30;;
64667;SDS011;51077;42.716;23.344;2023-03-01T00:40:24;2.88;;;1.58;;
64667;SDS011;51077;42.716;23.344;2023-03-01T00:42:50;2.72;;;1.60;;
64667;SDS011;51077;42.716;23.344;2023-03-01T00:45:16;2.27;;;1.30;;
64667;SDS011;51077;42.716;23.344;2023-03-01T00:47:42;2.80;;;1.77;;
64667;SDS011;51077;42.716;23.344;2023-03-01T00:50:08;2.85;;;1.50;;
64667;SDS011;51077;42.716;23.344;2023-03-01T00:52:33;2.33;;;1.35;;
64667;SDS011;51077;42.716;23.344;2023-03-01T00:54:59;2.43;;;1.27;;
64667;SDS011;51077;42.716;23.344;2023-03-01T00:57:24;3.10;;;1.40;;
64667;SDS011;51077;42.716;23.344;2023-03-01T00:59:50;2.40;;;1.30;;
64667;SDS011;51077;42.716;23.344;2023-03-01T01:02:17;2.63;;;1.40;;
64667;SDS011;51077;42.716;23.344;2023-03-01T01:04:43;2.28;;;1.20;;
64667;SDS011;51077;42.716;23.344;2023-03-01T01:07:08;2.97;;;1.50;;
64667;SDS011;51077;42.716;23.344;2023-03-01T01:09:34;2.70;;;1.30;;
64667;SDS011;51077;42.716;23.344;2023-03-01T01:11:59;2.50;;;1.40;;
64667;SDS011;51077;42.716;23.344;2023-03-01T01:14:25;3.37;;;1.70;;
64667;SDS011;51077;42.716;23.344;2023-03-01T01:16:50;3.93;;;1.90;;
64667;SDS011;51077;42.716;23.344;2023-03-01T01:19:16;3.60;;;2.00;;
64667;SDS011;51077;42.716;23.344;2023-03-01T01:21:41;3.13;;;1.63;;
64667;SDS011;51077;42.716;23.344;2023-03-01T01:24:10;2.75;;;1.50;;
64667;SDS011;51077;42.716;23.344;2023-03-01T01:26:36;2.92;;;1.52;;
64667;SDS011;51077;42.716;23.344;2023-03-01T01:29:03;2.83;;;1.60;;
64667;SDS011;51077;42.716;23.344;2023-03-01T01:31:30;2.40;;;1.20;;
64667;SDS011;51077;42.716;23.344;2023-03-01T01:33:56;2.78;;;1.55;;
64667;SDS011;51077;42.716;23.344;2023-03-01T01:36:23;2.40;;;1.30;;
64667;SDS011;51077;42.716;23.344;2023-03-01T01:38:49;1.88;;;0.98;;
64667;SDS011;51077;42.716;23.344;2023-03-01T01:41:15;2.40;;;1.10;;
64667;SDS011;51077;42.716;23.344;2023-03-01T01:43:43;3.13;;;1.20;;
64667;SDS011;51077;42.716;23.344;2023-03-01T01:46:28;2.10;;;1.13;;
64667;SDS011;51077;42.716;23.344;2023-03-01T01:49:03;1.90;;;1.05;;
64667;SDS011;51077;42.716;23.344;2023-03-01T01:51:36;2.08;;;1.20;;
64667;SDS011;51077;42.716;23.344;2023-03-01T01:54:09;2.00;;;1.17;;
64667;SDS011;51077;42.716;23.344;2023-03-01T01:56:38;2.50;;;1.20;;
64667;SDS011;51077;42.716;23.344;2023-03-01T01:59:07;2.72;;;1.58;;
64667;SDS011;51077;42.716;23.344;2023-03-01T02:01:33;2.53;;;1.52;;
64667;SDS011;51077;42.716;23.344;2023-03-01T02:03:58;2.97;;;2.00;;
64667;SDS011;51077;42.716;23.344;2023-03-01T02:08:54;3.85;;;2.08;;
64667;SDS011;51077;42.716;23.344;2023-03-01T02:11:27;5.78;;;2.95;;
64667;SDS011;51077;42.716;23.344;2023-03-01T02:13:54;5.35;;;3.00;;
64667;SDS011;51077;42.716;23.344;2023-03-01T02:16:20;6.03;;;3.57;;
64667;SDS011;51077;42.716;23.344;2023-03-01T02:18:45;5.63;;;3.10;;
64667;SDS011;51077;42.716;23.344;2023-03-01T02:23:46;6.20;;;3.60;;
64667;SDS011;51077;42.716;23.344;2023-03-01T02:26:18;7.38;;;4.25;;
64667;SDS011;51077;42.716;23.344;2023-03-01T02:28:45;7.20;;;4.15;;
64667;SDS011;51077;42.716;23.344;2023-03-01T02:31:13;7.87;;;4.53;;
64667;SDS011;51077;42.716;23.344;2023-03-01T02:33:59;8.18;;;3.92;;
64667;SDS011;51077;42.716;23.344;2023-03-01T02:36:28;6.20;;;3.80;;
64667;SDS011;51077;42.716;23.344;2023-03-01T02:38:57;4.90;;;3.40;;
64667;SDS011;51077;42.716;23.344;2023-03-01T02:41:24;7.10;;;3.90;;
64667;SDS011;51077;42.716;23.344;2023-03-01T02:43:53;6.22;;;3.45;;
64667;SDS011;51077;42.716;23.344;2023-03-01T02:46:20;6.20;;;3.30;;
64667;SDS011;51077;42.716;23.344;2023-03-01T02:48:49;5.10;;;2.78;;
64667;SDS011;51077;42.716;23.344;2023-03-01T02:57:03;4.10;;;2.22;;
64667;SDS011;51077;42.716;23.344;2023-03-01T02:59:30;4.07;;;2.00;;
64667;SDS011;51077;42.716;23.344;2023-03-01T03:02:04;3.22;;;1.70;;
64667;SDS011;51077;42.716;23.344;2023-03-01T03:04:32;3.28;;;2.20;;
64667;SDS011;51077;42.716;23.344;2023-03-01T03:06:57;3.53;;;2.03;;
64667;SDS011;51077;42.716;23.344;2023-03-01T03:09:23;3.83;;;2.17;;
64667;SDS011;51077;42.716;23.344;2023-03-01T03:11:48;2.93;;;1.83;;
64667;SDS011;51077;42.716;23.344;2023-03-01T03:14:14;3.87;;;1.90;;
64667;SDS011;51077;42.716;23.344;2023-03-01T03:16:44;3.92;;;1.92;;
64667;SDS011;51077;42.716;23.344;2023-03-01T03:19:12;3.13;;;1.80;;
64667;SDS011;51077;42.716;23.344;2023-03-01T03:21:37;4.10;;;1.70;;
64667;SDS011;51077;42.716;23.344;2023-03-01T03:24:03;2.70;;;1.42;;
64667;SDS011;51077;42.716;23.344;2023-03-01T03:26:30;4.22;;;1.90;;
64667;SDS011;51077;42.716;23.344;2023-03-01T03:28:55;3.00;;;1.90;;
64667;SDS011;51077;42.716;23.344;2023-03-01T03:31:22;3.22;;;1.77;;
64667;SDS011;51077;42.716;23.344;2023-03-01T03:33:47;3.13;;;1.87;;
64667;SDS011;51077;42.716;23.344;2023-03-01T03:36:16;2.70;;;1.47;;
64667;SDS011;51077;42.716;23.344;2023-03-01T03:38:44;2.63;;;1.33;;
64667;SDS011;51077;42.716;23.344;2023-03-01T03:41:10;2.47;;;1.30;;
64667;SDS011;51077;42.716;23.344;2023-03-01T03:46:21;2.60;;;1.35;;
64667;SDS011;51077;42.716;23.344;2023-03-01T03:49:05;2.50;;;1.20;;
64667;SDS011;51077;42.716;23.344;2023-03-01T03:51:30;2.37;;;1.10;;
64667;SDS011;51077;42.716;23.344;2023-03-01T03:53:55;2.30;;;1.27;;
64667;SDS011;51077;42.716;23.344;2023-03-01T03:56:21;2.77;;;1.10;;
64667;SDS011;51077;42.716;23.344;2023-03-01T03:58:51;2.17;;;1.23;;
64667;SDS011;51077;42.716;23.344;2023-03-01T04:01:17;3.15;;;1.30;;
64667;SDS011;51077;42.716;23.344;2023-03-01T04:03:43;2.67;;;1.15;;
64667;SDS011;51077;42.716;23.344;2023-03-01T04:06:11;2.47;;;1.20;;
64667;SDS011;51077;42.716;23.344;2023-03-01T04:08:37;4.35;;;1.23;;
64667;SDS011;51077;42.716;23.344;2023-03-01T04:11:03;1.90;;;1.20;;
64667;SDS011;51077;42.716;23.344;2023-03-01T04:13:48;2.10;;;1.10;;
64667;SDS011;51077;42.716;23.344;2023-03-01T04:16:14;2.33;;;1.10;;
64667;SDS011;51077;42.716;23.344;2023-03-01T04:18:39;2.30;;;1.10;;
64667;SDS011;51077;42.716;23.344;2023-03-01T04:21:05;2.33;;;1.30;;
64667;SDS011;51077;42.716;23.344;2023-03-01T04:23:30;2.50;;;1.00;;
64667;SDS011;51077;42.716;23.344;2023-03-01T04:25:56;2.33;;;1.10;;
64667;SDS011;51077;42.716;23.344;2023-03-01T04:28:27;3.47;;;1.30;;
64667;SDS011;51077;42.716;23.344;2023-03-01T04:31:08;2.78;;;1.30;;
64667;SDS011;51077;42.716;23.344;2023-03-01T04:33:59;2.35;;;1.23;;
64667;SDS011;51077;42.716;23.344;2023-03-01T04:36:25;3.15;;;1.55;;
64667;SDS011;51077;42.716;23.344;2023-03-01T04:38:54;2.63;;;1.33;;
64667;SDS011;51077;42.716;23.344;2023-03-01T04:41:21;2.47;;;1.27;;
64667;SDS011;51077;42.716;23.344;2023-03-01T04:43:47;3.53;;;1.67;;
64667;SDS011;51077;42.716;23.344;2023-03-01T04:46:14;2.92;;;1.50;;
64667;SDS011;51077;42.716;23.344;2023-03-01T04:48:42;3.10;;;1.70;;
64667;SDS011;51077;42.716;23.344;2023-03-01T04:51:08;3.00;;;1.45;;
64667;SDS011;51077;42.716;23.344;2023-03-01T04:53:34;4.60;;;1.87;;
64667;SDS011;51077;42.716;23.344;2023-03-01T04:56:03;5.20;;;2.58;;
64667;SDS011;51077;42.716;23.344;2023-03-01T04:58:29;5.27;;;3.07;;
64667;SDS011;51077;42.716;23.344;2023-03-01T05:00:54;4.47;;;2.47;;
64667;SDS011;51077;42.716;23.344;2023-03-01T05:03:20;4.25;;;2.65;;
64667;SDS011;51077;42.716;23.344;2023-03-01T05:05:47;5.07;;;2.80;;
64667;SDS011;51077;42.716;23.344;2023-03-01T05:08:14;4.03;;;2.30;;
64667;SDS011;51077;42.716;23.344;2023-03-01T05:10:48;4.25;;;2.78;;
64667;SDS011;51077;42.716;23.344;2023-03-01T05:13:15;5.55;;;2.88;;
64667;SDS011;51077;42.716;23.344;2023-03-01T05:15:46;5.50;;;2.67;;
64667;SDS011;51077;42.716;23.344;2023-03-01T05:18:25;5.25;;;2.97;;
64667;SDS011;51077;42.716;23.344;2023-03-01T05:21:01;4.97;;;3.13;;
64667;SDS011;51077;42.716;23.344;2023-03-01T05:23:30;4.53;;;2.80;;
64667;SDS011;51077;42.716;23.344;2023-03-01T05:26:00;5.35;;;3.38;;
64667;SDS011;51077;42.716;23.344;2023-03-01T05:28:28;6.88;;;3.10;;
64667;SDS011;51077;42.716;23.344;2023-03-01T05:30:54;5.10;;;2.80;;
64667;SDS011;51077;42.716;23.344;2023-03-01T05:33:20;4.87;;;3.30;;
64667;SDS011;51077;42.716;23.344;2023-03-01T05:35:47;4.47;;;2.90;;
64667;SDS011;51077;42.716;23.344;2023-03-01T05:38:14;5.30;;;2.88;;
64667;SDS011;51077;42.716;23.344;2023-03-01T05:40:41;5.50;;;3.05;;
64667;SDS011;51077;42.716;23.344;2023-03-01T05:43:08;4.10;;;2.78;;
64667;SDS011;51077;42.716;23.344;2023-03-01T05:45:35;4.43;;;3.22;;
64667;SDS011;51077;42.716;23.344;2023-03-01T05:48:02;4.53;;;2.88;;
64667;SDS011;51077;42.716;23.344;2023-03-01T05:50:28;5.28;;;3.05;;
64667;SDS011;51077;42.716;23.344;2023-03-01T05:53:02;6.65;;;3.20;;
64667;SDS011;51077;42.716;23.344;2023-03-01T05:55:33;5.60;;;3.40;;
64667;SDS011;51077;42.716;23.344;2023-03-01T05:57:59;5.53;;;3.38;;
64667;SDS011;51077;42.716;23.344;2023-03-01T06:00:26;5.80;;;3.38;;
64667;SDS011;51077;42.716;23.344;2023-03-01T06:02:53;6.97;;;3.75;;
64667;SDS011;51077;42.716;23.344;2023-03-01T06:05:19;6.55;;;3.47;;
64667;SDS011;51077;42.716;23.344;2023-03-01T06:07:44;4.77;;;3.10;;
64667;SDS011;51077;42.716;23.344;2023-03-01T06:10:11;7.17;;;3.17;;
64667;SDS011;51077;42.716;23.344;2023-03-01T06:12:38;5.30;;;3.20;;
64667;SDS011;51077;42.716;23.344;2023-03-01T06:15:05;5.15;;;3.10;;
64667;SDS011;51077;42.716;23.344;2023-03-01T06:17:31;5.55;;;2.95;;
64667;SDS011;51077;42.716;23.344;2023-03-01T06:20:02;5.03;;;3.13;;
64667;SDS011;51077;42.716;23.344;2023-03-01T06:22:48;3.85;;;2.60;;
64667;SDS011;51077;42.716;23.344;2023-03-01T06:25:15;5.00;;;3.28;;
64667;SDS011;51077;42.716;23.344;2023-03-01T06:27:44;4.72;;;2.78;;
64667;SDS011;51077;42.716;23.344;2023-03-01T06:30:10;5.43;;;2.87;;
64667;SDS011;51077;42.716;23.344;2023-03-01T06:32:37;8.23;;;3.17;;
64667;SDS011;51077;42.716;23.344;2023-03-01T06:35:03;5.47;;;3.28;;
64667;SDS011;51077;42.716;23.344;2023-03-01T06:37:29;7.55;;;3.42;;
64667;SDS011;51077;42.716;23.344;2023-03-01T06:39:55;7.47;;;3.43;;
64667;SDS011;51077;42.716;23.344;2023-03-01T06:42:20;7.53;;;3.30;;
64667;SDS011;51077;42.716;23.344;2023-03-01T06:44:45;8.37;;;3.67;;
64667;SDS011;51077;42.716;23.344;2023-03-01T06:47:11;7.68;;;3.20;;
64667;SDS011;51077;42.716;23.344;2023-03-01T06:49:37;6.60;;;3.47;;
64667;SDS011;51077;42.716;23.344;2023-03-01T06:52:02;6.23;;;3.20;;
64667;SDS011;51077;42.716;23.344;2023-03-01T06:54:28;5.63;;;3.20;;
64667;SDS011;51077;42.716;23.344;2023-03-01T06:56:53;6.03;;;3.33;;
64667;SDS011;51077;42.716;23.344;2023-03-01T06:59:19;7.13;;;3.47;;
64667;SDS011;51077;42.716;23.344;2023-03-01T07:01:44;6.37;;;3.33;;
64667;SDS011;51077;42.716;23.344;2023-03-01T07:04:10;6.80;;;3.83;;
64667;SDS011;51077;42.716;23.344;2023-03-01T07:06:36;5.90;;;3.05;;
64667;SDS011;51077;42.716;23.344;2023-03-01T07:09:01;5.57;;;3.70;;
64667;SDS011;51077;42.716;23.344;2023-03-01T07:11:27;6.83;;;3.23;;
64667;SDS011;51077;42.716;23.344;2023-03-01T07:13:52;7.07;;;2.80;;
64667;SDS011;51077;42.716;23.344;2023-03-01T07:16:18;4.70;;;2.63;;
64667;SDS011;51077;42.716;23.344;2023-03-01T07:18:45;6.63;;;2.78;;
64667;SDS011;51077;42.716;23.344;2023-03-01T07:21:11;4.87;;;2.23;;
64667;SDS011;51077;42.716;23.344;2023-03-01T07:23:38;3.55;;;2.08;;
64667;SDS011;51077;42.716;23.344;2023-03-01T07:26:03;4.93;;;2.43;;
64667;SDS011;51077;42.716;23.344;2023-03-01T07:28:29;5.53;;;2.93;;
64667;SDS011;51077;42.716;23.344;2023-03-01T07:30:55;3.58;;;1.85;;
64667;SDS011;51077;42.716;23.344;2023-03-01T07:33:26;4.45;;;2.00;;
64667;SDS011;51077;42.716;23.344;2023-03-01T07:35:58;7.63;;;2.17;;
64667;SDS011;51077;42.716;23.344;2023-03-01T07:38:24;3.58;;;2.08;;
64667;SDS011;51077;42.716;23.344;2023-03-01T07:40:51;7.05;;;3.15;;
64667;SDS011;51077;42.716;23.344;2023-03-01T07:43:16;5.40;;;2.60;;
64667;SDS011;51077;42.716;23.344;2023-03-01T07:45:41;5.57;;;2.77;;
64667;SDS011;51077;42.716;23.344;2023-03-01T07:48:07;7.47;;;3.43;;
64667;SDS011;51077;42.716;23.344;2023-03-01T07:50:32;5.17;;;2.97;;
64667;SDS011;51077;42.716;23.344;2023-03-01T07:52:57;6.90;;;2.97;;
64667;SDS011;51077;42.716;23.344;2023-03-01T07:55:23;4.77;;;2.83;;
64667;SDS011;51077;42.716;23.344;2023-03-01T07:57:48;6.17;;;2.93;;
64667;SDS011;51077;42.716;23.344;2023-03-01T08:00:14;7.57;;;3.20;;
64667;SDS011;51077;42.716;23.344;2023-03-01T08:02:39;6.97;;;3.00;;
64667;SDS011;51077;42.716;23.344;2023-03-01T08:05:07;5.22;;;2.60;;
64667;SDS011;51077;42.716;23.344;2023-03-01T08:07:33;4.97;;;2.28;;
64667;SDS011;51077;42.716;23.344;2023-03-01T08:09:59;4.77;;;2.60;;
64667;SDS011;51077;42.716;23.344;2023-03-01T08:12:24;5.20;;;2.90;;
64667;SDS011;51077;42.716;23.344;2023-03-01T08:14:52;3.58;;;1.73;;
64667;SDS011;51077;42.716;23.344;2023-03-01T08:17:18;4.67;;;2.23;;
64667;SDS011;51077;42.716;23.344;2023-03-01T08:19:43;3.97;;;2.30;;
64667;SDS011;51077;42.716;23.344;2023-03-01T08:22:08;4.63;;;1.97;;
64667;SDS011;51077;42.716;23.344;2023-03-01T08:24:34;5.33;;;2.20;;
64667;SDS011;51077;42.716;23.344;2023-03-01T08:26:59;4.70;;;2.13;;
64667;SDS011;51077;42.716;23.344;2023-03-01T08:29:25;4.30;;;1.90;;
64667;SDS011;51077;42.716;23.344;2023-03-01T08:31:51;5.53;;;2.10;;
64667;SDS011;51077;42.716;23.344;2023-03-01T08:34:16;4.93;;;2.50;;
64667;SDS011;51077;42.716;23.344;2023-03-01T08:36:43;5.53;;;2.08;;
64667;SDS011;51077;42.716;23.344;2023-03-01T08:39:11;5.75;;;2.20;;
64667;SDS011;51077;42.716;23.344;2023-03-01T08:41:39;4.60;;;2.33;;
64667;SDS011;51077;42.716;23.344;2023-03-01T08:44:05;3.88;;;2.15;;
64667;SDS011;51077;42.716;23.344;2023-03-01T08:46:32;4.00;;;1.90;;
64667;SDS011;51077;42.716;23.344;2023-03-01T08:48:59;6.32;;;2.33;;
64667;SDS011;51077;42.716;23.344;2023-03-01T08:51:25;6.30;;;2.63;;
64667;SDS011;51077;42.716;23.344;2023-03-01T08:53:51;5.68;;;2.40;;
64667;SDS011;51077;42.716;23.344;2023-03-01T08:56:18;4.55;;;2.08;;
64667;SDS011;51077;42.716;23.344;2023-03-01T08:58:46;6.88;;;2.40;;
64667;SDS011;51077;42.716;23.344;2023-03-01T09:01:16;7.05;;;3.05;;
64667;SDS011;51077;42.716;23.344;2023-03-01T09:03:44;9.40;;;3.28;;
64667;SDS011;51077;42.716;23.344;2023-03-01T09:06:10;5.70;;;3.13;;
64667;SDS011;51077;42.716;23.344;2023-03-01T09:08:37;6.53;;;2.65;;
64667;SDS011;51077;42.716;23.344;2023-03-01T09:11:04;7.15;;;3.10;;
64667;SDS011;51077;42.716;23.344;2023-03-01T09:13:31;5.03;;;2.90;;
64667;SDS011;51077;42.716;23.344;2023-03-01T09:15:58;4.88;;;2.60;;
64667;SDS011;51077;42.716;23.344;2023-03-01T09:18:25;5.05;;;2.72;;
64667;SDS011;51077;42.716;23.344;2023-03-01T09:20:50;6.83;;;2.77;;
64667;SDS011;51077;42.716;23.344;2023-03-01T09:23:16;4.20;;;2.30;;
64667;SDS011;51077;42.716;23.344;2023-03-01T09:25:41;4.67;;;2.47;;
64667;SDS011;51077;42.716;23.344;2023-03-01T09:28:06;4.00;;;1.90;;
64667;SDS011;51077;42.716;23.344;2023-03-01T09:30:32;4.77;;;2.30;;
64667;SDS011;51077;42.716;23.344;2023-03-01T09:32:57;3.13;;;2.10;;
64667;SDS011;51077;42.716;23.344;2023-03-01T09:35:23;4.20;;;2.03;;
64667;SDS011;51077;42.716;23.344;2023-03-01T09:37:49;5.27;;;2.07;;
64667;SDS011;51077;42.716;23.344;2023-03-01T09:40:19;3.13;;;1.77;;
64667;SDS011;51077;42.716;23.344;2023-03-01T09:43:03;6.45;;;1.92;;
64667;SDS011;51077;42.716;23.344;2023-03-01T09:45:38;3.40;;;1.90;;
64667;SDS011;51077;42.716;23.344;2023-03-01T09:48:18;5.00;;;2.13;;
64667;SDS011;51077;42.716;23.344;2023-03-01T09:50:48;3.83;;;1.67;;
64667;SDS011;51077;42.716;23.344;2023-03-01T09:53:36;3.33;;;1.45;;
64667;SDS011;51077;42.716;23.344;2023-03-01T09:56:02;2.55;;;1.38;;
64667;SDS011;51077;42.716;23.344;2023-03-01T10:04:05;4.72;;;1.25;;
64667;SDS011;51077;42.716;23.344;2023-03-01T10:06:36;2.55;;;1.10;;
64667;SDS011;51077;42.716;23.344;2023-03-01T10:09:13;4.07;;;1.00;;
64667;SDS011;51077;42.716;23.344;2023-03-01T10:11:43;2.97;;;1.13;;
64667;SDS011;51077;42.716;23.344;2023-03-01T10:14:25;2.55;;;1.30;;
64667;SDS011;51077;42.716;23.344;2023-03-01T10:16:59;1.92;;;1.10;;
64667;SDS011;51077;42.716;23.344;2023-03-01T10:19:32;3.03;;;1.27;;
64667;SDS011;51077;42.716;23.344;2023-03-01T10:22:13;3.63;;;1.70;;
64667;SDS011;51077;42.716;23.344;2023-03-01T10:24:38;3.08;;;1.50;;
64667;SDS011;51077;42.716;23.344;2023-03-01T10:27:05;3.93;;;1.40;;
64667;SDS011;51077;42.716;23.344;2023-03-01T10:29:42;3.10;;;1.27;;
64667;SDS011;51077;42.716;23.344;2023-03-01T10:32:15;4.07;;;1.73;;
64667;SDS011;51077;42.716;23.344;2023-03-01T10:34:42;3.22;;;1.40;;
64667;SDS011;51077;42.716;23.344;2023-03-01T10:37:15;2.30;;;1.07;;
64667;SDS011;51077;42.716;23.344;2023-03-01T10:42:46;3.97;;;0.90;;
64667;SDS011;51077;42.716;23.344;2023-03-01T10:48:03;3.67;;;1.40;;
64667;SDS011;51077;42.716;23.344;2023-03-01T10:50:48;2.20;;;1.10;;
64667;SDS011;51077;42.716;23.344;2023-03-01T10:53:32;4.55;;;1.70;;
64667;SDS011;51077;42.716;23.344;2023-03-01T10:58:58;2.63;;;1.40;;
64667;SDS011;51077;42.716;23.344;2023-03-01T11:01:26;3.28;;;1.88;;
64667;SDS011;51077;42.716;23.344;2023-03-01T11:06:28;4.28;;;1.90;;
64667;SDS011;51077;42.716;23.344;2023-03-01T11:08:54;3.63;;;1.70;;
64667;SDS011;51077;42.716;23.344;2023-03-01T11:13:57;4.97;;;2.35;;
64667;SDS011;51077;42.716;23.344;2023-03-01T11:22:20;5.53;;;2.83;;
64667;SDS011;51077;42.716;23.344;2023-03-01T11:24:30;5.38;;;2.60;;
64667;SDS011;51077;42.716;23.344;2023-03-01T11:27:06;4.95;;;2.40;;
64667;SDS011;51077;42.716;23.344;2023-03-01T11:29:41;6.18;;;2.10;;
64667;SDS011;51077;42.716;23.344;2023-03-01T11:32:11;4.60;;;2.38;;
64667;SDS011;51077;42.716;23.344;2023-03-01T11:39:51;5.10;;;2.80;;
64667;SDS011;51077;42.716;23.344;2023-03-01T11:42:24;6.10;;;2.25;;
64667;SDS011;51077;42.716;23.344;2023-03-01T11:45:10;6.65;;;2.38;;
64667;SDS011;51077;42.716;23.344;2023-03-01T11:48:11;6.82;;;1.90;;
64667;SDS011;51077;42.716;23.344;2023-03-01T11:50:55;5.78;;;2.35;;
64667;SDS011;51077;42.716;23.344;2023-03-01T11:56:33;5.28;;;2.28;;
64667;SDS011;51077;42.716;23.344;2023-03-01T12:07:11;4.10;;;1.65;;
64667;SDS011;51077;42.716;23.344;2023-03-01T12:21:17;3.42;;;1.15;;
64667;SDS011;51077;42.716;23.344;2023-03-01T12:28:59;4.50;;;1.20;;
64667;SDS011;51077;42.716;23.344;2023-03-01T12:37:28;4.13;;;1.30;;
64667;SDS011;51077;42.716;23.344;2023-03-01T12:48:35;3.15;;;1.40;;
64667;SDS011;51077;42.716;23.344;2023-03-01T12:51:24;2.60;;;1.10;;
64667;SDS011;51077;42.716;23.344;2023-03-01T12:53:55;4.13;;;1.30;;
64667;SDS011;51077;42.716;23.344;2023-03-01T12:56:25;2.80;;;1.23;;
64667;SDS011;51077;42.716;23.344;2023-03-01T13:09:30;3.25;;;1.48;;
64667;SDS011;51077;42.716;23.344;2023-03-01T13:15:24;3.72;;;1.90;;
64667;SDS011;51077;42.716;23.344;2023-03-01T13:17:55;3.70;;;2.03;;
64667;SDS011;51077;42.716;23.344;2023-03-01T13:31:00;5.03;;;3.00;;
64667;SDS011;51077;42.716;23.344;2023-03-01T13:35:52;4.80;;;2.70;;
64667;SDS011;51077;42.716;23.344;2023-03-01T13:41:08;4.70;;;2.40;;
64667;SDS011;51077;42.716;23.344;2023-03-01T13:43:35;9.10;;;2.60;;
64667;SDS011;51077;42.716;23.344;2023-03-01T13:48:58;5.22;;;2.53;;
64667;SDS011;51077;42.716;23.344;2023-03-01T13:51:24;5.27;;;2.70;;
64667;SDS011;51077;42.716;23.344;2023-03-01T13:53:52;3.50;;;2.00;;
64667;SDS011;51077;42.716;23.344;2023-03-01T13:56:24;4.60;;;2.30;;
64667;SDS011;51077;42.716;23.344;2023-03-01T14:01:41;3.35;;;1.85;;
64667;SDS011;51077;42.716;23.344;2023-03-01T14:04:18;5.40;;;2.17;;
64667;SDS011;51077;42.716;23.344;2023-03-01T14:06:46;3.80;;;2.17;;
64667;SDS011;51077;42.716;23.344;2023-03-01T14:09:15;5.67;;;2.70;;
64667;SDS011;51077;42.716;23.344;2023-03-01T14:14:54;4.97;;;2.17;;
64667;SDS011;51077;42.716;23.344;2023-03-01T14:22:43;6.43;;;2.47;;
64667;SDS011;51077;42.716;23.344;2023-03-01T14:27:50;5.35;;;2.67;;
64667;SDS011;51077;42.716;23.344;2023-03-01T14:30:24;5.80;;;2.85;;
64667;SDS011;51077;42.716;23.344;2023-03-01T14:32:59;7.20;;;2.88;;
64667;SDS011;51077;42.716;23.344;2023-03-01T14:35:27;5.30;;;2.83;;
64667;SDS011;51077;42.716;23.344;2023-03-01T14:37:55;4.32;;;2.30;;
64667;SDS011;51077;42.716;23.344;2023-03-01T14:40:21;7.67;;;2.47;;
64667;SDS011;51077;42.716;23.344;2023-03-01T14:42:55;5.22;;;2.60;;
64667;SDS011;51077;42.716;23.344;2023-03-01T14:45:24;5.82;;;2.17;;
64667;SDS011;51077;42.716;23.344;2023-03-01T14:47:52;4.88;;;2.35;;
64667;SDS011;51077;42.716;23.344;2023-03-01T14:50:23;5.25;;;2.50;;
64667;SDS011;51077;42.716;23.344;2023-03-01T14:52:52;4.72;;;2.70;;
64667;SDS011;51077;42.716;23.344;2023-03-01T14:55:29;5.97;;;3.00;;
64667;SDS011;51077;42.716;23.344;2023-03-01T14:57:56;6.47;;;3.10;;
64667;SDS011;51077;42.716;23.344;2023-03-01T15:00:23;8.32;;;3.38;;
64667;SDS011;51077;42.716;23.344;2023-03-01T15:02:52;7.65;;;3.40;;
64667;SDS011;51077;42.716;23.344;2023-03-01T15:05:29;6.10;;;2.80;;
64667;SDS011;51077;42.716;23.344;2023-03-01T15:07:56;7.68;;;3.15;;
64667;SDS011;51077;42.716;23.344;2023-03-01T15:10:25;5.80;;;3.15;;
64667;SDS011;51077;42.716;23.344;2023-03-01T15:12:55;5.40;;;2.72;;
64667;SDS011;51077;42.716;23.344;2023-03-01T15:15:32;8.20;;;2.63;;
64667;SDS011;51077;42.716;23.344;2023-03-01T15:18:03;4.47;;;2.35;;
64667;SDS011;51077;42.716;23.344;2023-03-01T15:20:31;5.45;;;2.75;;
64667;SDS011;51077;42.716;23.344;2023-03-01T15:23:01;6.20;;;3.35;;
64667;SDS011;51077;42.716;23.344;2023-03-01T15:25:28;6.13;;;2.83;;
64667;SDS011;51077;42.716;23.344;2023-03-01T15:27:55;7.88;;;3.10;;
64667;SDS011;51077;42.716;23.344;2023-03-01T15:35:52;5.28;;;3.10;;
64667;SDS011;51077;42.716;23.344;2023-03-01T15:41:00;6.35;;;3.15;;
64667;SDS011;51077;42.716;23.344;2023-03-01T15:46:02;9.48;;;3.75;;
64667;SDS011;51077;42.716;23.344;2023-03-01T15:48:29;7.63;;;3.95;;
64667;SDS011;51077;42.716;23.344;2023-03-01T15:50:55;12.20;;;4.65;;
64667;SDS011;51077;42.716;23.344;2023-03-01T15:53:23;11.10;;;4.60;;
64667;SDS011;51077;42.716;23.344;2023-03-01T15:55:49;8.80;;;4.93;;
64667;SDS011;51077;42.716;23.344;2023-03-01T15:58:18;12.35;;;6.72;;
64667;SDS011;51077;42.716;23.344;2023-03-01T16:00:46;10.63;;;5.72;;
64667;SDS011;51077;42.716;23.344;2023-03-01T16:03:13;14.32;;;7.38;;
64667;SDS011;51077;42.716;23.344;2023-03-01T16:05:46;12.25;;;7.30;;
64667;SDS011;51077;42.716;23.344;2023-03-01T16:08:12;12.50;;;7.82;;
64667;SDS011;51077;42.716;23.344;2023-03-01T16:10:38;13.03;;;7.67;;
64667;SDS011;51077;42.716;23.344;2023-03-01T16:13:05;11.95;;;7.43;;
64667;SDS011;51077;42.716;23.344;2023-03-01T16:15:31;12.93;;;6.87;;
64667;SDS011;51077;42.716;23.344;2023-03-01T16:17:59;9.82;;;5.90;;
64667;SDS011;51077;42.716;23.344;2023-03-01T16:20:25;8.43;;;6.05;;
64667;SDS011;51077;42.716;23.344;2023-03-01T16:22:51;10.13;;;6.32;;
64667;SDS011;51077;42.716;23.344;2023-03-01T16:25:18;9.10;;;5.00;;
64667;SDS011;51077;42.716;23.344;2023-03-01T16:27:45;11.27;;;6.13;;
64667;SDS011;51077;42.716;23.344;2023-03-01T16:30:14;9.55;;;5.22;;
64667;SDS011;51077;42.716;23.344;2023-03-01T16:32:41;12.32;;;5.88;;
64667;SDS011;51077;42.716;23.344;2023-03-01T16:35:08;12.68;;;5.70;;
64667;SDS011;51077;42.716;23.344;2023-03-01T16:37:35;12.07;;;6.03;;
64667;SDS011;51077;42.716;23.344;2023-03-01T16:40:02;10.80;;;5.78;;
64667;SDS011;51077;42.716;23.344;2023-03-01T16:42:32;10.27;;;5.30;;
64667;SDS011;51077;42.716;23.344;2023-03-01T16:44:58;9.35;;;5.47;;
64667;SDS011;51077;42.716;23.344;2023-03-01T16:47:24;8.67;;;5.33;;
64667;SDS011;51077;42.716;23.344;2023-03-01T16:49:52;8.37;;;5.20;;
64667;SDS011;51077;42.716;23.344;2023-03-01T16:52:19;7.93;;;4.55;;
64667;SDS011;51077;42.716;23.344;2023-03-01T16:54:45;8.57;;;4.47;;
64667;SDS011;51077;42.716;23.344;2023-03-01T16:57:11;8.23;;;4.30;;
64667;SDS011;51077;42.716;23.344;2023-03-01T16:59:36;8.43;;;4.35;;
64667;SDS011;51077;42.716;23.344;2023-03-01T17:02:02;7.57;;;3.90;;
64667;SDS011;51077;42.716;23.344;2023-03-01T17:04:29;6.30;;;3.92;;